Argyle, Iowa
Current Conditions -  °F | °C
As of 1:55 AM on Friday 31 Oct 2014 (Local Time) from KEOK Reporting Station
Overcast Overcast  
Wind Chill: 44°   Ceiling: 6000
Heat Index: 48°   Visibility: 10mi
Dew Point: 41°   Wind: 10mph
Humidity: 76%   Direction: 340°NNW
Pressure: 30.14"   Gusts: NA
Location:  40.53°N, 91.57°W
Report Text: KEOK 310655Z AUTO 34009KT 10SM OVC060 09/05 A3014 RMK AO2
Loading
Personal Weather Stations






























Interactive Weather Map New forecast layout! Learn more

10-Day Weather Forecast

Advertisements
Track Severe Weather on mobile